Time;durP1;ratioP1;P1;durP2;ratioP2;P2;SDS_P1;SDS_P2;PMS_P1;PMS_P2;Temp;Humidity;BMP_temperature;BMP_pressure;BME280_temperature;BME280_humidity;BME280_pressure;Samples;Min_cycle;Max_cycle;Signal;HPM_P1;HPM_P2
2024/01/14 00:02:42;;;;;;;2.90;2.70;;;;;;;;;;10303781;28;20225;-69
2024/01/14 00:07:43;;;;;;;4.13;2.92;;;;;;;;;;10321554;28;20191;-70
2024/01/14 00:12:44;;;;;;;3.60;2.97;;;;;;;;;;10302382;28;20747;-70
2024/01/14 00:17:46;;;;;;;4.15;2.67;;;;;;;;;;10295112;28;20192;-70
2024/01/14 00:22:47;;;;;;;3.15;2.95;;;;;;;;;;10320988;28;20220;-70
2024/01/14 00:27:48;;;;;;;2.72;2.50;;;;;;;;;;10296703;28;20252;-70
2024/01/14 00:32:49;;;;;;;3.40;2.47;;;;;;;;;;10308037;28;20255;-71
2024/01/14 00:37:51;;;;;;;3.65;2.50;;;;;;;;;;10307832;28;20196;-70
2024/01/14 00:42:52;;;;;;;2.83;2.60;;;;;;;;;;10328696;28;20307;-70
2024/01/14 00:47:53;;;;;;;5.65;3.05;;;;;;;;;;10308518;28;20601;-70
2024/01/14 00:52:56;;;;;;;7.80;3.50;;;;;;;;;;10317903;28;20212;-70
2024/01/14 00:57:57;;;;;;;3.33;3.03;;;;;;;;;;10311612;28;20200;-70
2024/01/14 01:02:58;;;;;;;6.03;3.72;;;;;;;;;;10295619;28;20215;-70
2024/01/14 01:07:59;;;;;;;3.35;2.85;;;;;;;;;;10317633;28;20278;-70
2024/01/14 01:13:00;;;;;;;5.80;3.67;;;;;;;;;;10304351;28;20990;-70
2024/01/14 01:18:01;;;;;;;6.15;3.92;;;;;;;;;;10301296;28;20721;-70
2024/01/14 01:23:02;;;;;;;9.50;3.88;;;;;;;;;;10281416;28;20755;-70
2024/01/14 01:28:03;;;;;;;6.20;3.67;;;;;;;;;;10319818;28;20315;-70
2024/01/14 01:33:04;;;;;;;3.67;3.35;;;;;;;;;;10295607;28;20232;-70
2024/01/14 01:38:05;;;;;;;6.60;3.72;;;;;;;;;;10309336;28;20204;-70
2024/01/14 01:43:06;;;;;;;3.90;3.60;;;;;;;;;;10299554;28;21042;-70
2024/01/14 01:48:07;;;;;;;5.63;2.95;;;;;;;;;;10296442;28;20554;-70
2024/01/14 01:53:08;;;;;;;3.83;3.53;;;;;;;;;;10317899;28;20718;-70
2024/01/14 01:58:10;;;;;;;2.75;2.55;;;;;;;;;;10308481;28;20203;-70
2024/01/14 02:03:12;;;;;;;3.45;3.08;;;;;;;;;;10301727;28;20248;-70
2024/01/14 02:08:13;;;;;;;3.78;3.05;;;;;;;;;;10295493;28;20185;-70
2024/01/14 02:13:14;;;;;;;4.22;3.47;;;;;;;;;;10320229;28;20212;-71
2024/01/14 02:18:15;;;;;;;3.35;2.75;;;;;;;;;;10294766;28;20189;-71
2024/01/14 02:23:19;;;;;;;3.85;1.83;;;;;;;;;;10310783;28;20324;-71
2024/01/14 02:28:20;;;;;;;3.00;1.50;;;;;;;;;;10297809;28;20205;-70
2024/01/14 02:33:22;;;;;;;2.00;1.90;;;;;;;;;;10304244;28;21264;-71
2024/01/14 02:38:23;;;;;;;1.58;1.10;;;;;;;;;;10313110;28;20254;-71
2024/01/14 02:43:24;;;;;;;1.15;1.05;;;;;;;;;;10319021;28;20298;-71
2024/01/14 02:48:26;;;;;;;2.08;1.63;;;;;;;;;;10324055;28;20236;-71
2024/01/14 02:53:27;;;;;;;2.42;1.77;;;;;;;;;;10297240;28;20250;-71
2024/01/14 02:58:28;;;;;;;1.67;1.58;;;;;;;;;;10319629;28;20196;-71
2024/01/14 03:03:29;;;;;;;3.33;1.33;;;;;;;;;;10321097;28;20433;-71
2024/01/14 03:08:30;;;;;;;1.73;1.27;;;;;;;;;;10326763;28;20185;-71
2024/01/14 03:13:31;;;;;;;1.88;1.77;;;;;;;;;;10323818;28;20225;-71
2024/01/14 03:18:32;;;;;;;2.22;1.35;;;;;;;;;;10300908;28;20657;-71
2024/01/14 03:23:33;;;;;;;1.45;1.25;;;;;;;;;;10323732;28;20252;-71
2024/01/14 03:28:34;;;;;;;2.50;1.17;;;;;;;;;;10308689;28;20743;-71
2024/01/14 03:33:35;;;;;;;1.05;1.05;;;;;;;;;;10307115;28;20232;-71
2024/01/14 03:38:36;;;;;;;0.80;0.80;;;;;;;;;;10312545;28;20203;-71
2024/01/14 03:43:37;;;;;;;0.60;0.60;;;;;;;;;;10313061;28;20212;-71
2024/01/14 03:48:38;;;;;;;1.13;0.90;;;;;;;;;;10320165;28;20196;-71
2024/01/14 03:53:39;;;;;;;0.70;0.70;;;;;;;;;;10298135;28;20271;-71
2024/01/14 03:58:40;;;;;;;0.55;0.55;;;;;;;;;;10306229;28;20189;-71
2024/01/14 04:03:41;;;;;;;0.50;0.50;;;;;;;;;;10306787;28;20224;-70
2024/01/14 04:08:42;;;;;;;0.30;0.30;;;;;;;;;;10319272;28;20188;-70
2024/01/14 04:13:43;;;;;;;0.40;0.40;;;;;;;;;;10296126;28;20247;-70
2024/01/14 04:18:44;;;;;;;0.40;0.40;;;;;;;;;;10308638;28;20196;-70
2024/01/14 04:23:45;;;;;;;0.20;0.20;;;;;;;;;;10299163;28;20274;-71
2024/01/14 04:28:47;;;;;;;0.20;0.20;;;;;;;;;;10311722;28;20206;-70
2024/01/14 04:33:48;;;;;;;0.20;0.20;;;;;;;;;;10283151;28;20223;-71
2024/01/14 04:38:49;;;;;;;0.60;0.60;;;;;;;;;;10303497;28;20198;-70
2024/01/14 04:43:50;;;;;;;0.50;0.40;;;;;;;;;;10293687;28;20228;-74
2024/01/14 04:48:51;;;;;;;0.73;0.73;;;;;;;;;;10317406;28;20283;-70
2024/01/14 04:53:52;;;;;;;1.00;0.82;;;;;;;;;;10305846;28;20244;-70
2024/01/14 04:58:53;;;;;;;2.53;1.08;;;;;;;;;;10312016;28;20580;-70
2024/01/14 05:03:54;;;;;;;2.03;0.98;;;;;;;;;;10295384;28;22889;-70
2024/01/14 05:08:55;;;;;;;2.40;1.30;;;;;;;;;;10292677;28;20192;-70
2024/01/14 05:13:56;;;;;;;1.27;1.17;;;;;;;;;;10307091;28;20918;-70
2024/01/14 05:18:57;;;;;;;0.93;0.90;;;;;;;;;;10322181;28;20184;-71
2024/01/14 05:23:58;;;;;;;1.95;1.65;;;;;;;;;;10329534;28;20212;-71
2024/01/14 05:28:59;;;;;;;1.13;1.13;;;;;;;;;;10322725;28;20207;-71
2024/01/14 05:34:00;;;;;;;1.83;1.52;;;;;;;;;;10290120;28;20731;-70
2024/01/14 05:39:03;;;;;;;1.15;1.02;;;;;;;;;;10271036;28;20197;-70
2024/01/14 05:44:04;;;;;;;2.50;1.30;;;;;;;;;;10281487;28;20209;-71
2024/01/14 05:49:05;;;;;;;1.65;1.00;;;;;;;;;;10271229;28;20635;-71
2024/01/14 05:54:06;;;;;;;1.90;1.00;;;;;;;;;;10274932;28;20209;-70
2024/01/14 05:59:07;;;;;;;1.80;1.70;;;;;;;;;;10243559;28;20208;-70
2024/01/14 06:04:08;;;;;;;2.72;1.45;;;;;;;;;;10266957;28;20217;-69
2024/01/14 06:09:09;;;;;;;1.35;1.20;;;;;;;;;;10272859;28;20197;-70
2024/01/14 06:14:10;;;;;;;1.33;1.15;;;;;;;;;;10266280;28;20599;-72
2024/01/14 06:19:11;;;;;;;5.28;1.90;;;;;;;;;;10264331;28;20189;-72
2024/01/14 06:24:16;;;;;;;2.78;1.80;;;;;;;;;;10286799;28;20224;-70
2024/01/14 06:29:16;;;;;;;2.58;1.67;;;;;;;;;;10255647;28;20178;-70
2024/01/14 06:34:18;;;;;;;2.83;1.35;;;;;;;;;;10287713;28;20225;-70
2024/01/14 06:39:19;;;;;;;2.03;1.88;;;;;;;;;;10277213;28;20346;-70
2024/01/14 06:44:20;;;;;;;2.13;1.98;;;;;;;;;;10268973;28;20876;-70
2024/01/14 06:49:21;;;;;;;2.08;1.60;;;;;;;;;;10270667;28;20265;-71
2024/01/14 06:54:22;;;;;;;3.25;2.05;;;;;;;;;;10276286;28;20220;-70
2024/01/14 06:59:24;;;;;;;2.20;1.50;;;;;;;;;;10283582;28;20235;-70
2024/01/14 07:04:25;;;;;;;4.28;1.77;;;;;;;;;;10253857;28;20639;-70
2024/01/14 07:09:26;;;;;;;4.55;1.60;;;;;;;;;;10274385;28;20565;-70
2024/01/14 07:14:27;;;;;;;1.88;1.67;;;;;;;;;;10270776;28;20212;-70
2024/01/14 07:19:28;;;;;;;4.15;2.13;;;;;;;;;;10260953;28;20193;-70
2024/01/14 07:24:29;;;;;;;2.08;1.70;;;;;;;;;;10268780;28;20806;-70
2024/01/14 07:29:31;;;;;;;1.98;1.75;;;;;;;;;;10271190;28;20193;-70
2024/01/14 07:34:32;;;;;;;3.22;1.85;;;;;;;;;;10310186;28;20224;-70
2024/01/14 07:39:33;;;;;;;10.10;1.88;;;;;;;;;;10299637;28;20204;-71
2024/01/14 07:44:34;;;;;;;6.65;1.77;;;;;;;;;;10281928;28;20230;-70
2024/01/14 07:49:35;;;;;;;2.53;1.75;;;;;;;;;;10321414;28;20188;-70
2024/01/14 07:54:36;;;;;;;12.30;1.77;;;;;;;;;;10321765;28;20216;-70
2024/01/14 07:59:37;;;;;;;8.23;1.92;;;;;;;;;;10290005;28;20196;-70
2024/01/14 08:04:38;;;;;;;1.63;1.52;;;;;;;;;;10260975;28;20229;-70
2024/01/14 08:09:39;;;;;;;1.60;1.50;;;;;;;;;;10281966;28;20189;-70
2024/01/14 08:14:40;;;;;;;1.52;1.42;;;;;;;;;;10236631;28;20297;-70
2024/01/14 08:19:41;;;;;;;1.35;1.10;;;;;;;;;;10272900;28;20660;-70
2024/01/14 08:24:42;;;;;;;5.32;1.25;;;;;;;;;;10264033;28;20216;-70
2024/01/14 08:29:43;;;;;;;3.50;1.30;;;;;;;;;;10278700;28;20197;-70
2024/01/14 08:34:44;;;;;;;1.42;1.33;;;;;;;;;;10235372;28;20226;-69
2024/01/14 08:39:45;;;;;;;5.93;1.83;;;;;;;;;;10255414;28;20754;-69
2024/01/14 08:44:47;;;;;;;3.17;1.55;;;;;;;;;;10267356;28;20228;-69
2024/01/14 08:49:48;;;;;;;1.52;0.90;;;;;;;;;;10271208;28;20680;-69
2024/01/14 08:54:49;;;;;;;5.22;1.27;;;;;;;;;;10274592;28;20210;-70
2024/01/14 08:59:50;;;;;;;1.05;0.98;;;;;;;;;;10265055;28;20185;-69
2024/01/14 09:04:51;;;;;;;2.38;1.67;;;;;;;;;;10287427;28;20219;-70
2024/01/14 09:09:52;;;;;;;3.95;2.05;;;;;;;;;;10257709;28;20202;-72
2024/01/14 09:14:53;;;;;;;4.57;1.25;;;;;;;;;;10268933;28;20217;-70
2024/01/14 09:19:54;;;;;;;7.30;1.58;;;;;;;;;;10289378;28;20283;-70
2024/01/14 09:24:55;;;;;;;2.13;1.63;;;;;;;;;;10276559;28;20208;-70
2024/01/14 09:29:56;;;;;;;3.15;2.10;;;;;;;;;;10281241;28;20249;-69
2024/01/14 09:34:57;;;;;;;5.05;2.08;;;;;;;;;;10315741;28;20228;-72
2024/01/14 09:39:58;;;;;;;4.70;2.58;;;;;;;;;;10322502;28;20196;-72
2024/01/14 09:45:00;;;;;;;8.15;2.15;;;;;;;;;;10305217;28;20589;-72
2024/01/14 09:50:01;;;;;;;6.32;1.27;;;;;;;;;;10308892;28;20200;-74
2024/01/14 09:55:03;;;;;;;4.85;1.60;;;;;;;;;;10309184;28;20211;-72
2024/01/14 10:00:05;;;;;;;3.13;1.33;;;;;;;;;;10292327;28;20188;-71
2024/01/14 10:05:08;;;;;;;5.45;1.35;;;;;;;;;;10315879;28;20220;-72
2024/01/14 10:10:09;;;;;;;5.75;1.15;;;;;;;;;;10319769;28;20189;-71
2024/01/14 10:15:12;;;;;;;3.60;1.00;;;;;;;;;;10287505;28;20216;-71
2024/01/14 10:20:13;;;;;;;2.70;0.90;;;;;;;;;;10323996;28;20199;-71
2024/01/14 10:25:14;;;;;;;1.33;1.05;;;;;;;;;;10303258;28;20228;-72
2024/01/14 10:30:15;;;;;;;6.38;0.88;;;;;;;;;;10314787;28;20192;-71
2024/01/14 10:35:17;;;;;;;7.30;0.93;;;;;;;;;;10316275;28;20219;-72
2024/01/14 10:40:18;;;;;;;2.60;1.00;;;;;;;;;;10291689;28;20208;-72
2024/01/14 10:45:19;;;;;;;1.45;0.98;;;;;;;;;;10314040;28;20212;-72
2024/01/14 10:50:21;;;;;;;3.42;0.98;;;;;;;;;;10315250;28;20271;-72
2024/01/14 10:55:34;;;;;;;4.95;1.48;;;;;;;;;;10316613;28;20208;-72
2024/01/14 11:00:37;;;;;;;4.22;1.27;;;;;;;;;;10299766;28;20251;-72
2024/01/14 11:05:38;;;;;;;3.13;1.73;;;;;;;;;;10308090;28;21007;-73
2024/01/14 11:10:40;;;;;;;4.82;2.08;;;;;;;;;;10299939;28;20227;-72
2024/01/14 11:15:51;;;;;;;9.02;2.80;;;;;;;;;;10305042;28;20761;-72
2024/01/14 11:21:01;;;;;;;5.53;2.50;;;;;;;;;;10317157;28;20201;-72
2024/01/14 11:26:02;;;;;;;6.40;2.30;;;;;;;;;;10326683;28;20212;-72
2024/01/14 11:31:04;;;;;;;2.40;1.48;;;;;;;;;;10302733;28;20212;-72
2024/01/14 11:36:06;;;;;;;1.95;1.83;;;;;;;;;;10316964;28;20320;-72
2024/01/14 11:41:26;;;;;;;4.82;2.20;;;;;;;;;;10320017;28;20189;-72
2024/01/14 11:46:37;;;;;;;3.28;2.97;;;;;;;;;;10319641;28;20243;-72
2024/01/14 11:51:43;;;;;;;2.50;2.30;;;;;;;;;;10324247;28;20208;-73
2024/01/14 11:56:44;;;;;;;2.60;2.10;;;;;;;;;;10300711;28;20188;-72
2024/01/14 12:01:45;;;;;;;4.50;1.85;;;;;;;;;;10318737;28;20221;-72
2024/01/14 12:06:47;;;;;;;2.28;2.13;;;;;;;;;;10327301;28;20217;-72
2024/01/14 12:11:48;;;;;;;1.83;1.73;;;;;;;;;;10319888;28;20592;-72
2024/01/14 12:16:49;;;;;;;1.67;1.67;;;;;;;;;;10306812;28;20206;-72
2024/01/14 12:21:50;;;;;;;2.70;2.25;;;;;;;;;;10327477;28;20658;-72
2024/01/14 12:26:53;;;;;;;4.45;2.50;;;;;;;;;;10307294;28;20692;-72
2024/01/14 12:31:54;;;;;;;7.18;3.78;;;;;;;;;;10310003;28;20239;-72
2024/01/14 12:36:55;;;;;;;4.97;2.58;;;;;;;;;;10300699;28;20698;-72
2024/01/14 12:41:56;;;;;;;7.13;3.03;;;;;;;;;;10316343;28;20280;-72
2024/01/14 12:47:04;;;;;;;2.78;2.58;;;;;;;;;;10300357;28;20304;-72
2024/01/14 12:52:06;;;;;;;7.10;3.55;;;;;;;;;;10320284;28;20214;-72
2024/01/14 12:57:07;;;;;;;3.10;2.55;;;;;;;;;;10326155;28;20211;-72
2024/01/14 13:02:08;;;;;;;3.15;2.55;;;;;;;;;;10304093;28;20220;-72
2024/01/14 13:07:09;;;;;;;3.38;2.00;;;;;;;;;;10316659;28;20263;-72
2024/01/14 13:12:10;;;;;;;3.38;2.42;;;;;;;;;;10310676;28;20291;-72
2024/01/14 13:17:11;;;;;;;3.45;2.85;;;;;;;;;;10261543;28;20625;-72
2024/01/14 13:22:12;;;;;;;5.85;2.55;;;;;;;;;;10318110;28;20209;-72
2024/01/14 13:27:13;;;;;;;2.90;2.75;;;;;;;;;;10319943;28;20263;-72
2024/01/14 13:32:16;;;;;;;4.95;3.13;;;;;;;;;;10312717;28;20279;-72
2024/01/14 13:37:17;;;;;;;2.53;2.33;;;;;;;;;;10296436;28;20783;-72
2024/01/14 13:42:18;;;;;;;3.05;2.78;;;;;;;;;;10314921;28;20759;-72
2024/01/14 13:47:19;;;;;;;3.75;3.38;;;;;;;;;;10318395;28;20216;-72
2024/01/14 13:52:20;;;;;;;5.65;3.65;;;;;;;;;;10302501;28;20219;-72
2024/01/14 13:57:22;;;;;;;6.55;4.35;;;;;;;;;;10318082;28;20220;-72
2024/01/14 14:02:23;;;;;;;5.32;3.70;;;;;;;;;;10321070;28;20219;-72
2024/01/14 14:07:25;;;;;;;4.10;3.72;;;;;;;;;;10322964;28;20213;-72
2024/01/14 14:12:27;;;;;;;6.07;3.88;;;;;;;;;;10278281;28;20222;-71
2024/01/14 14:17:27;;;;;;;6.57;4.00;;;;;;;;;;10282293;28;21586;-71
2024/01/14 14:22:29;;;;;;;6.18;3.30;;;;;;;;;;10291964;28;20213;-72
2024/01/14 14:27:30;;;;;;;4.82;3.60;;;;;;;;;;10301066;28;20228;-72
2024/01/14 14:32:31;;;;;;;8.35;4.18;;;;;;;;;;10269520;28;20821;-72
2024/01/14 14:37:33;;;;;;;6.13;3.28;;;;;;;;;;10251512;28;20192;-71
2024/01/14 14:42:34;;;;;;;6.28;3.60;;;;;;;;;;10272174;28;20850;-72
2024/01/14 14:47:34;;;;;;;5.70;3.60;;;;;;;;;;10250423;28;20216;-71
2024/01/14 14:52:36;;;;;;;3.85;3.53;;;;;;;;;;10288274;28;20927;-71
2024/01/14 14:57:36;;;;;;;3.25;2.95;;;;;;;;;;10287162;28;20243;-71
2024/01/14 15:02:37;;;;;;;3.53;2.70;;;;;;;;;;10287790;28;20216;-71
2024/01/14 15:07:38;;;;;;;4.40;3.25;;;;;;;;;;10287954;28;20209;-71
2024/01/14 15:12:39;;;;;;;4.65;3.35;;;;;;;;;;10284563;28;20205;-71
2024/01/14 15:17:40;;;;;;;3.60;3.30;;;;;;;;;;10258096;28;20199;-71
2024/01/14 15:23:06;;;;;;;3.85;3.40;;;;;;;;;;10287151;28;20971;-71
2024/01/14 15:28:08;;;;;;;5.10;3.15;;;;;;;;;;10278295;28;20284;-71
2024/01/14 15:33:09;;;;;;;3.40;3.10;;;;;;;;;;10281235;28;20216;-71
2024/01/14 15:38:10;;;;;;;3.78;3.47;;;;;;;;;;10278930;28;20238;-69
2024/01/14 15:43:12;;;;;;;3.40;3.05;;;;;;;;;;10281131;28;20224;-69
2024/01/14 15:48:18;;;;;;;3.35;3.05;;;;;;;;;;10284680;28;20200;-70
2024/01/14 15:53:19;;;;;;;3.60;3.40;;;;;;;;;;10294276;28;20561;-69
2024/01/14 15:58:20;;;;;;;3.17;2.97;;;;;;;;;;10311588;28;20227;-70
2024/01/14 16:03:21;;;;;;;3.85;3.05;;;;;;;;;;10280033;28;20217;-69
2024/01/14 16:08:22;;;;;;;2.65;2.45;;;;;;;;;;10289278;28;20195;-72
2024/01/14 16:13:23;;;;;;;2.67;2.38;;;;;;;;;;10300594;28;20217;-69
2024/01/14 16:18:24;;;;;;;2.20;2.10;;;;;;;;;;10278556;28;20200;-69
2024/01/14 16:23:25;;;;;;;2.95;2.63;;;;;;;;;;10285280;28;20256;-70
2024/01/14 16:28:26;;;;;;;4.53;2.70;;;;;;;;;;10293024;28;20182;-69
2024/01/14 16:33:27;;;;;;;3.47;2.70;;;;;;;;;;10289419;28;20276;-69
2024/01/14 16:38:28;;;;;;;2.95;2.28;;;;;;;;;;10295835;28;20684;-69
2024/01/14 16:43:29;;;;;;;9.07;4.35;;;;;;;;;;10311119;28;20307;-69
2024/01/14 16:48:30;;;;;;;3.67;3.38;;;;;;;;;;10282938;28;20185;-70
2024/01/14 16:53:32;;;;;;;4.20;3.05;;;;;;;;;;10297784;28;20229;-70
2024/01/14 16:58:33;;;;;;;4.45;2.85;;;;;;;;;;10290804;28;20188;-70
2024/01/14 17:03:34;;;;;;;5.97;3.90;;;;;;;;;;10270938;28;20221;-69
2024/01/14 17:08:35;;;;;;;5.32;3.47;;;;;;;;;;10297797;28;20184;-70
2024/01/14 17:13:36;;;;;;;5.03;3.25;;;;;;;;;;10289237;28;20686;-70
2024/01/14 17:18:37;;;;;;;4.30;3.90;;;;;;;;;;10272428;28;20661;-70
2024/01/14 17:23:38;;;;;;;5.30;3.08;;;;;;;;;;10278416;28;20240;-69
2024/01/14 17:28:42;;;;;;;5.68;3.45;;;;;;;;;;10263512;28;20217;-69
2024/01/14 17:33:44;;;;;;;6.25;3.95;;;;;;;;;;10275392;28;20268;-70
2024/01/14 17:38:48;;;;;;;4.45;3.20;;;;;;;;;;10273611;28;20279;-69
2024/01/14 17:43:49;;;;;;;6.40;4.43;;;;;;;;;;10284680;28;20295;-69
2024/01/14 17:48:52;;;;;;;11.20;4.35;;;;;;;;;;10289591;28;20192;-70
2024/01/14 17:53:54;;;;;;;6.70;4.13;;;;;;;;;;10287764;28;20216;-71
2024/01/14 17:58:56;;;;;;;7.60;4.38;;;;;;;;;;10263238;28;20202;-70
2024/01/14 18:03:57;;;;;;;6.47;4.15;;;;;;;;;;10298777;28;20628;-72
2024/01/14 18:08:58;;;;;;;7.10;4.13;;;;;;;;;;10297530;28;20195;-70
2024/01/14 18:13:59;;;;;;;9.50;4.65;;;;;;;;;;10277356;28;20223;-70
2024/01/14 18:19:00;;;;;;;5.05;4.20;;;;;;;;;;10253390;28;20204;-71
2024/01/14 18:24:02;;;;;;;7.10;4.10;;;;;;;;;;10240000;28;20226;-70
2024/01/14 18:29:03;;;;;;;7.63;3.60;;;;;;;;;;10249431;28;20420;-71
2024/01/14 18:34:04;;;;;;;5.28;3.80;;;;;;;;;;10277791;28;20254;-71
2024/01/14 18:39:06;;;;;;;3.83;3.17;;;;;;;;;;10277048;28;20281;-70
2024/01/14 18:44:07;;;;;;;4.55;3.00;;;;;;;;;;10259346;28;21846;-71
2024/01/14 18:49:08;;;;;;;4.32;3.55;;;;;;;;;;10293742;28;20185;-70
2024/01/14 18:54:11;;;;;;;3.78;3.47;;;;;;;;;;10278226;28;20698;-69
2024/01/14 18:59:12;;;;;;;7.30;3.55;;;;;;;;;;10266015;28;20192;-71
2024/01/14 19:04:13;;;;;;;6.28;4.25;;;;;;;;;;10263760;28;20365;-71
2024/01/14 19:09:14;;;;;;;7.30;4.57;;;;;;;;;;10279783;28;20220;-70
2024/01/14 19:14:16;;;;;;;7.45;5.32;;;;;;;;;;10311040;28;20284;-70
2024/01/14 19:19:17;;;;;;;8.05;4.28;;;;;;;;;;10278623;28;20203;-70
2024/01/14 19:24:18;;;;;;;6.97;4.82;;;;;;;;;;10292691;28;20216;-70
2024/01/14 19:29:20;;;;;;;6.25;5.18;;;;;;;;;;10288932;28;20252;-70
2024/01/14 19:34:21;;;;;;;8.02;5.10;;;;;;;;;;10284019;28;20226;-72
2024/01/14 19:39:24;;;;;;;8.98;5.82;;;;;;;;;;10298856;28;20287;-70
2024/01/14 19:44:25;;;;;;;8.45;4.78;;;;;;;;;;10300514;28;20777;-70
2024/01/14 19:49:26;;;;;;;7.18;5.70;;;;;;;;;;10303256;28;20197;-70
2024/01/14 19:54:27;;;;;;;9.48;5.65;;;;;;;;;;10292552;28;20886;-70
2024/01/14 19:59:28;;;;;;;5.28;4.40;;;;;;;;;;10308416;28;20733;-70
2024/01/14 20:04:29;;;;;;;10.30;5.22;;;;;;;;;;10290027;28;20712;-70
2024/01/14 20:09:30;;;;;;;6.03;4.88;;;;;;;;;;10297879;28;20246;-70
2024/01/14 20:14:32;;;;;;;7.03;4.70;;;;;;;;;;10306070;28;20266;-70
2024/01/14 20:19:33;;;;;;;6.85;5.13;;;;;;;;;;10286958;28;20229;-71
2024/01/14 20:24:36;;;;;;;7.32;5.40;;;;;;;;;;10308369;28;20721;-70
2024/01/14 20:29:37;;;;;;;7.35;4.03;;;;;;;;;;10301269;28;20207;-70
2024/01/14 20:34:38;;;;;;;7.20;4.53;;;;;;;;;;10275231;28;20241;-70
2024/01/14 20:39:39;;;;;;;7.93;5.03;;;;;;;;;;10269310;28;20212;-70
2024/01/14 20:44:41;;;;;;;6.15;4.15;;;;;;;;;;10248446;28;20225;-70
2024/01/14 20:49:43;;;;;;;6.05;5.05;;;;;;;;;;10266965;28;20687;-70
2024/01/14 20:54:44;;;;;;;4.38;3.97;;;;;;;;;;10269854;28;20561;-70
2024/01/14 20:59:49;;;;;;;8.55;4.75;;;;;;;;;;10272123;28;20190;-70
2024/01/14 21:04:52;;;;;;;8.57;4.65;;;;;;;;;;10249451;28;20324;-70
2024/01/14 21:09:55;;;;;;;6.32;4.30;;;;;;;;;;10276831;28;20189;-70
2024/01/14 21:15:01;;;;;;;5.45;4.28;;;;;;;;;;10264572;28;20236;-70
2024/01/14 21:20:03;;;;;;;7.53;5.15;;;;;;;;;;10273770;28;20283;-71
2024/01/14 21:25:04;;;;;;;8.68;4.97;;;;;;;;;;10254994;28;20202;-70
2024/01/14 21:30:05;;;;;;;6.68;4.55;;;;;;;;;;10276859;28;20190;-70
2024/01/14 21:35:06;;;;;;;6.78;4.65;;;;;;;;;;10318409;28;20241;-70
2024/01/14 21:40:08;;;;;;;5.63;5.03;;;;;;;;;;10324283;28;20298;-70
2024/01/14 21:45:09;;;;;;;7.63;4.45;;;;;;;;;;10326247;28;20329;-70
2024/01/14 21:50:10;;;;;;;6.35;4.70;;;;;;;;;;10315613;28;20668;-71
2024/01/14 21:55:11;;;;;;;8.02;5.45;;;;;;;;;;10317393;28;20220;-70
2024/01/14 22:00:12;;;;;;;6.68;4.82;;;;;;;;;;10332047;28;20710;-70
2024/01/14 22:05:13;;;;;;;9.15;5.13;;;;;;;;;;10305718;28;20223;-70
2024/01/14 22:10:14;;;;;;;7.75;4.88;;;;;;;;;;10311972;28;20619;-70
2024/01/14 22:15:15;;;;;;;5.13;4.15;;;;;;;;;;10295310;28;20268;-70
2024/01/14 22:20:16;;;;;;;4.88;4.05;;;;;;;;;;10317104;28;20200;-71
2024/01/14 22:25:17;;;;;;;7.13;4.90;;;;;;;;;;10317010;28;20221;-70
2024/01/14 22:30:18;;;;;;;6.15;4.60;;;;;;;;;;10308917;28;20237;-70
2024/01/14 22:35:19;;;;;;;7.70;4.90;;;;;;;;;;10305319;28;20221;-70
2024/01/14 22:40:20;;;;;;;6.15;4.22;;;;;;;;;;10306816;28;20206;-70
2024/01/14 22:45:21;;;;;;;8.00;4.93;;;;;;;;;;10325021;28;20802;-70
2024/01/14 22:50:22;;;;;;;8.43;4.50;;;;;;;;;;10304603;28;20200;-70
2024/01/14 22:55:23;;;;;;;5.35;4.35;;;;;;;;;;10289351;28;20273;-70
2024/01/14 23:00:24;;;;;;;6.38;4.75;;;;;;;;;;10311689;28;20219;-70
2024/01/14 23:05:25;;;;;;;8.75;5.30;;;;;;;;;;10326356;28;20629;-70
2024/01/14 23:10:27;;;;;;;6.63;4.28;;;;;;;;;;10310712;28;20194;-70
2024/01/14 23:15:28;;;;;;;7.20;4.15;;;;;;;;;;10333102;28;20247;-70
2024/01/14 23:20:30;;;;;;;6.53;4.20;;;;;;;;;;10288239;28;20228;-70
2024/01/14 23:25:31;;;;;;;7.68;3.70;;;;;;;;;;10323110;28;20224;-70
2024/01/14 23:30:32;;;;;;;7.90;4.30;;;;;;;;;;10327364;28;20805;-70
2024/01/14 23:35:33;;;;;;;5.00;4.38;;;;;;;;;;10314282;28;20213;-70
2024/01/14 23:40:34;;;;;;;7.60;4.70;;;;;;;;;;10326043;28;20185;-71
2024/01/14 23:45:38;;;;;;;7.47;4.13;;;;;;;;;;10311599;28;20302;-71
2024/01/14 23:50:39;;;;;;;4.93;3.88;;;;;;;;;;10313499;28;20184;-70
2024/01/14 23:55:40;;;;;;;7.55;4.85;;;;;;;;;;10313990;28;20213;-71
